sensor_id;sensor_type;location;lat;lon;timestamp;temperature;humidity
46091;DHT22;31826;53.572;10.170;2023-12-07T00:01:05;1.00;99.90
46091;DHT22;31826;53.572;10.170;2023-12-07T00:03:31;1.00;99.90
46091;DHT22;31826;53.572;10.170;2023-12-07T00:05:56;1.00;99.90
46091;DHT22;31826;53.572;10.170;2023-12-07T00:08:22;0.90;99.90
46091;DHT22;31826;53.572;10.170;2023-12-07T00:10:48;1.00;99.90
46091;DHT22;31826;53.572;10.170;2023-12-07T00:13:13;1.00;99.90
46091;DHT22;31826;53.572;10.170;2023-12-07T00:15:39;1.00;99.90
46091;DHT22;31826;53.572;10.170;2023-12-07T00:18:05;1.00;99.90
46091;DHT22;31826;53.572;10.170;2023-12-07T00:20:31;1.00;99.90
46091;DHT22;31826;53.572;10.170;2023-12-07T00:22:56;1.00;99.90
46091;DHT22;31826;53.572;10.170;2023-12-07T00:25:22;1.00;99.90
46091;DHT22;31826;53.572;10.170;2023-12-07T00:27:49;1.00;99.90
46091;DHT22;31826;53.572;10.170;2023-12-07T00:30:15;1.00;99.90
46091;DHT22;31826;53.572;10.170;2023-12-07T00:32:41;0.90;99.90
46091;DHT22;31826;53.572;10.170;2023-12-07T00:35:10;1.00;99.90
46091;DHT22;31826;53.572;10.170;2023-12-07T00:37:36;0.90;99.90
46091;DHT22;31826;53.572;10.170;2023-12-07T00:40:02;0.90;99.90
46091;DHT22;31826;53.572;10.170;2023-12-07T00:42:29;1.00;99.90
46091;DHT22;31826;53.572;10.170;2023-12-07T00:44:55;1.00;99.90
46091;DHT22;31826;53.572;10.170;2023-12-07T00:47:21;0.90;99.90
46091;DHT22;31826;53.572;10.170;2023-12-07T00:49:47;1.00;99.90
46091;DHT22;31826;53.572;10.170;2023-12-07T00:52:13;1.00;99.90
46091;DHT22;31826;53.572;10.170;2023-12-07T00:54:39;0.90;99.90
46091;DHT22;31826;53.572;10.170;2023-12-07T00:57:05;1.00;99.90
46091;DHT22;31826;53.572;10.170;2023-12-07T00:59:31;0.90;99.90
46091;DHT22;31826;53.572;10.170;2023-12-07T01:02:03;1.00;99.90
46091;DHT22;31826;53.572;10.170;2023-12-07T01:04:30;1.00;99.90
46091;DHT22;31826;53.572;10.170;2023-12-07T01:06:56;0.90;99.90
46091;DHT22;31826;53.572;10.170;2023-12-07T01:09:22;1.00;99.90
46091;DHT22;31826;53.572;10.170;2023-12-07T01:11:49;1.00;99.90
46091;DHT22;31826;53.572;10.170;2023-12-07T01:14:15;1.00;99.90
46091;DHT22;31826;53.572;10.170;2023-12-07T01:16:40;1.00;99.90
46091;DHT22;31826;53.572;10.170;2023-12-07T01:19:06;1.00;99.90
46091;DHT22;31826;53.572;10.170;2023-12-07T01:21:33;1.00;99.90
46091;DHT22;31826;53.572;10.170;2023-12-07T01:23:58;1.00;99.90
46091;DHT22;31826;53.572;10.170;2023-12-07T01:26:24;0.90;99.90
46091;DHT22;31826;53.572;10.170;2023-12-07T01:28:50;0.90;99.90
46091;DHT22;31826;53.572;10.170;2023-12-07T01:31:16;0.90;99.90
46091;DHT22;31826;53.572;10.170;2023-12-07T01:33:43;1.00;99.90
46091;DHT22;31826;53.572;10.170;2023-12-07T01:36:09;0.90;99.90
46091;DHT22;31826;53.572;10.170;2023-12-07T01:38:35;0.90;99.90
46091;DHT22;31826;53.572;10.170;2023-12-07T01:41:01;0.90;99.90
46091;DHT22;31826;53.572;10.170;2023-12-07T01:43:27;1.00;99.90
46091;DHT22;31826;53.572;10.170;2023-12-07T01:45:54;1.00;99.90
46091;DHT22;31826;53.572;10.170;2023-12-07T01:48:22;1.00;99.90
46091;DHT22;31826;53.572;10.170;2023-12-07T01:50:49;1.00;99.90
46091;DHT22;31826;53.572;10.170;2023-12-07T01:53:15;1.00;99.90
46091;DHT22;31826;53.572;10.170;2023-12-07T01:55:41;1.00;99.90
46091;DHT22;31826;53.572;10.170;2023-12-07T01:58:07;1.00;99.90
46091;DHT22;31826;53.572;10.170;2023-12-07T02:00:34;1.00;99.90
46091;DHT22;31826;53.572;10.170;2023-12-07T02:03:02;1.00;99.90
46091;DHT22;31826;53.572;10.170;2023-12-07T02:05:29;1.00;99.90
46091;DHT22;31826;53.572;10.170;2023-12-07T02:07:55;1.00;99.90
46091;DHT22;31826;53.572;10.170;2023-12-07T02:10:20;1.00;99.90
46091;DHT22;31826;53.572;10.170;2023-12-07T02:12:47;1.00;99.90
46091;DHT22;31826;53.572;10.170;2023-12-07T02:15:13;1.00;99.90
46091;DHT22;31826;53.572;10.170;2023-12-07T02:18:24;1.00;99.90
46091;DHT22;31826;53.572;10.170;2023-12-07T02:21:46;1.00;99.90
46091;DHT22;31826;53.572;10.170;2023-12-07T02:24:11;1.00;99.90
46091;DHT22;31826;53.572;10.170;2023-12-07T02:26:41;0.90;99.90
46091;DHT22;31826;53.572;10.170;2023-12-07T02:29:07;1.00;99.90
46091;DHT22;31826;53.572;10.170;2023-12-07T02:31:33;1.00;99.90
46091;DHT22;31826;53.572;10.170;2023-12-07T02:33:59;1.00;99.90
46091;DHT22;31826;53.572;10.170;2023-12-07T02:36:27;1.00;99.90
46091;DHT22;31826;53.572;10.170;2023-12-07T02:38:56;1.00;99.90
46091;DHT22;31826;53.572;10.170;2023-12-07T02:41:24;1.00;99.90
46091;DHT22;31826;53.572;10.170;2023-12-07T02:43:51;1.00;99.90
46091;DHT22;31826;53.572;10.170;2023-12-07T02:46:18;1.00;99.90
46091;DHT22;31826;53.572;10.170;2023-12-07T02:48:43;1.00;99.90
46091;DHT22;31826;53.572;10.170;2023-12-07T02:51:09;1.00;99.90
46091;DHT22;31826;53.572;10.170;2023-12-07T02:53:35;0.90;99.90
46091;DHT22;31826;53.572;10.170;2023-12-07T02:56:00;1.00;99.90
46091;DHT22;31826;53.572;10.170;2023-12-07T02:58:26;0.90;99.90
46091;DHT22;31826;53.572;10.170;2023-12-07T03:00:52;1.00;99.90
46091;DHT22;31826;53.572;10.170;2023-12-07T03:03:17;1.00;99.90
46091;DHT22;31826;53.572;10.170;2023-12-07T03:05:43;0.90;99.90
46091;DHT22;31826;53.572;10.170;2023-12-07T03:08:09;0.90;99.90
46091;DHT22;31826;53.572;10.170;2023-12-07T03:10:34;1.00;99.90
46091;DHT22;31826;53.572;10.170;2023-12-07T03:13:00;0.90;99.90
46091;DHT22;31826;53.572;10.170;2023-12-07T03:15:25;1.00;99.90
46091;DHT22;31826;53.572;10.170;2023-12-07T03:17:53;0.90;99.90
46091;DHT22;31826;53.572;10.170;2023-12-07T03:20:19;0.90;99.90
46091;DHT22;31826;53.572;10.170;2023-12-07T03:22:44;0.90;99.90
46091;DHT22;31826;53.572;10.170;2023-12-07T03:25:10;0.90;99.90
46091;DHT22;31826;53.572;10.170;2023-12-07T03:27:36;1.00;99.90
46091;DHT22;31826;53.572;10.170;2023-12-07T03:30:02;0.90;99.90
46091;DHT22;31826;53.572;10.170;2023-12-07T03:32:28;0.90;99.90
46091;DHT22;31826;53.572;10.170;2023-12-07T03:34:54;0.90;99.90
46091;DHT22;31826;53.572;10.170;2023-12-07T03:37:19;0.90;99.90
46091;DHT22;31826;53.572;10.170;2023-12-07T03:39:45;1.00;99.90
46091;DHT22;31826;53.572;10.170;2023-12-07T03:42:11;1.00;99.90
46091;DHT22;31826;53.572;10.170;2023-12-07T03:44:36;0.90;99.90
46091;DHT22;31826;53.572;10.170;2023-12-07T03:47:02;1.00;99.90
46091;DHT22;31826;53.572;10.170;2023-12-07T03:49:28;1.00;99.90
46091;DHT22;31826;53.572;10.170;2023-12-07T03:51:54;1.00;99.90
46091;DHT22;31826;53.572;10.170;2023-12-07T03:54:20;0.90;99.90
46091;DHT22;31826;53.572;10.170;2023-12-07T03:56:45;1.00;99.90
46091;DHT22;31826;53.572;10.170;2023-12-07T03:59:11;1.00;99.90
46091;DHT22;31826;53.572;10.170;2023-12-07T04:01:37;1.10;99.90
46091;DHT22;31826;53.572;10.170;2023-12-07T04:04:02;1.00;99.90
46091;DHT22;31826;53.572;10.170;2023-12-07T04:06:30;1.00;99.90
46091;DHT22;31826;53.572;10.170;2023-12-07T04:08:56;1.00;99.90
46091;DHT22;31826;53.572;10.170;2023-12-07T04:11:22;1.00;99.90
46091;DHT22;31826;53.572;10.170;2023-12-07T04:13:47;1.10;99.90
46091;DHT22;31826;53.572;10.170;2023-12-07T04:16:13;1.10;99.90
46091;DHT22;31826;53.572;10.170;2023-12-07T04:18:39;1.10;99.90
46091;DHT22;31826;53.572;10.170;2023-12-07T04:21:05;1.10;99.90
46091;DHT22;31826;53.572;10.170;2023-12-07T04:23:31;1.10;99.90
46091;DHT22;31826;53.572;10.170;2023-12-07T04:25:57;1.10;99.90
46091;DHT22;31826;53.572;10.170;2023-12-07T04:28:22;1.10;99.90
46091;DHT22;31826;53.572;10.170;2023-12-07T04:30:48;1.10;99.90
46091;DHT22;31826;53.572;10.170;2023-12-07T04:33:14;1.10;99.90
46091;DHT22;31826;53.572;10.170;2023-12-07T04:35:39;1.10;99.90
46091;DHT22;31826;53.572;10.170;2023-12-07T04:38:05;1.10;99.90
46091;DHT22;31826;53.572;10.170;2023-12-07T04:40:31;1.10;99.90
46091;DHT22;31826;53.572;10.170;2023-12-07T04:42:57;1.10;99.90
46091;DHT22;31826;53.572;10.170;2023-12-07T04:45:22;1.20;99.90
46091;DHT22;31826;53.572;10.170;2023-12-07T04:47:48;1.20;99.90
46091;DHT22;31826;53.572;10.170;2023-12-07T04:50:14;1.10;99.90
46091;DHT22;31826;53.572;10.170;2023-12-07T04:52:40;1.10;99.90
46091;DHT22;31826;53.572;10.170;2023-12-07T04:55:06;1.10;99.90
46091;DHT22;31826;53.572;10.170;2023-12-07T04:57:35;1.00;99.90
46091;DHT22;31826;53.572;10.170;2023-12-07T05:00:02;1.00;99.90
46091;DHT22;31826;53.572;10.170;2023-12-07T05:02:32;1.00;99.90
46091;DHT22;31826;53.572;10.170;2023-12-07T05:04:57;1.00;99.90
46091;DHT22;31826;53.572;10.170;2023-12-07T05:07:23;1.00;99.90
46091;DHT22;31826;53.572;10.170;2023-12-07T05:09:49;1.00;99.90
46091;DHT22;31826;53.572;10.170;2023-12-07T05:12:16;1.00;99.90
46091;DHT22;31826;53.572;10.170;2023-12-07T05:14:42;1.00;99.90
46091;DHT22;31826;53.572;10.170;2023-12-07T05:17:08;1.00;99.90
46091;DHT22;31826;53.572;10.170;2023-12-07T05:19:33;1.00;99.90
46091;DHT22;31826;53.572;10.170;2023-12-07T05:21:59;1.00;99.90
46091;DHT22;31826;53.572;10.170;2023-12-07T05:24:25;1.00;99.90
46091;DHT22;31826;53.572;10.170;2023-12-07T05:26:51;1.00;99.90
46091;DHT22;31826;53.572;10.170;2023-12-07T05:29:17;1.10;99.90
46091;DHT22;31826;53.572;10.170;2023-12-07T05:31:43;1.10;99.90
46091;DHT22;31826;53.572;10.170;2023-12-07T05:34:09;1.10;99.90
46091;DHT22;31826;53.572;10.170;2023-12-07T05:36:34;1.10;99.90
46091;DHT22;31826;53.572;10.170;2023-12-07T05:39:01;1.00;99.90
46091;DHT22;31826;53.572;10.170;2023-12-07T05:41:26;1.10;99.90
46091;DHT22;31826;53.572;10.170;2023-12-07T05:43:52;1.10;99.90
46091;DHT22;31826;53.572;10.170;2023-12-07T05:46:19;1.10;99.90
46091;DHT22;31826;53.572;10.170;2023-12-07T05:48:45;1.10;99.90
46091;DHT22;31826;53.572;10.170;2023-12-07T05:51:15;1.10;99.90
46091;DHT22;31826;53.572;10.170;2023-12-07T05:53:41;1.00;99.90
46091;DHT22;31826;53.572;10.170;2023-12-07T05:56:07;1.10;99.90
46091;DHT22;31826;53.572;10.170;2023-12-07T05:58:33;1.10;99.90
46091;DHT22;31826;53.572;10.170;2023-12-07T06:01:00;1.10;99.90
46091;DHT22;31826;53.572;10.170;2023-12-07T06:03:26;1.00;99.90
46091;DHT22;31826;53.572;10.170;2023-12-07T06:05:52;1.00;99.90
46091;DHT22;31826;53.572;10.170;2023-12-07T06:08:18;1.10;99.90
46091;DHT22;31826;53.572;10.170;2023-12-07T06:10:43;1.10;99.90
46091;DHT22;31826;53.572;10.170;2023-12-07T06:13:09;1.10;99.90
46091;DHT22;31826;53.572;10.170;2023-12-07T06:15:36;1.10;99.90
46091;DHT22;31826;53.572;10.170;2023-12-07T06:18:01;1.10;99.90
46091;DHT22;31826;53.572;10.170;2023-12-07T06:20:28;1.10;99.90
46091;DHT22;31826;53.572;10.170;2023-12-07T06:22:54;1.10;99.90
46091;DHT22;31826;53.572;10.170;2023-12-07T06:25:20;1.10;99.90
46091;DHT22;31826;53.572;10.170;2023-12-07T06:27:45;1.20;99.90
46091;DHT22;31826;53.572;10.170;2023-12-07T06:30:11;1.10;99.90
46091;DHT22;31826;53.572;10.170;2023-12-07T06:32:37;1.20;99.90
46091;DHT22;31826;53.572;10.170;2023-12-07T06:35:04;1.10;99.90
46091;DHT22;31826;53.572;10.170;2023-12-07T06:37:33;1.20;99.90
46091;DHT22;31826;53.572;10.170;2023-12-07T06:39:58;1.10;99.90
46091;DHT22;31826;53.572;10.170;2023-12-07T06:42:26;1.10;99.90
46091;DHT22;31826;53.572;10.170;2023-12-07T06:44:51;1.10;99.90
46091;DHT22;31826;53.572;10.170;2023-12-07T06:47:17;1.10;99.90
46091;DHT22;31826;53.572;10.170;2023-12-07T06:49:44;1.20;99.90
46091;DHT22;31826;53.572;10.170;2023-12-07T06:52:11;1.10;99.90
46091;DHT22;31826;53.572;10.170;2023-12-07T06:54:37;1.10;99.90
46091;DHT22;31826;53.572;10.170;2023-12-07T06:57:04;1.10;99.90
46091;DHT22;31826;53.572;10.170;2023-12-07T06:59:30;1.10;99.90
46091;DHT22;31826;53.572;10.170;2023-12-07T07:01:55;1.10;99.90
46091;DHT22;31826;53.572;10.170;2023-12-07T07:04:21;1.10;99.90
46091;DHT22;31826;53.572;10.170;2023-12-07T07:06:47;1.10;99.90
46091;DHT22;31826;53.572;10.170;2023-12-07T07:09:12;1.10;99.90
46091;DHT22;31826;53.572;10.170;2023-12-07T07:11:38;1.10;99.90
46091;DHT22;31826;53.572;10.170;2023-12-07T07:14:04;1.10;99.90
46091;DHT22;31826;53.572;10.170;2023-12-07T07:16:30;1.10;99.90
46091;DHT22;31826;53.572;10.170;2023-12-07T07:18:56;1.10;99.90
46091;DHT22;31826;53.572;10.170;2023-12-07T07:21:22;1.00;99.90
46091;DHT22;31826;53.572;10.170;2023-12-07T07:23:47;1.00;99.90
46091;DHT22;31826;53.572;10.170;2023-12-07T07:26:13;1.00;99.90
46091;DHT22;31826;53.572;10.170;2023-12-07T07:28:43;1.10;99.90
46091;DHT22;31826;53.572;10.170;2023-12-07T07:31:09;1.10;99.90
46091;DHT22;31826;53.572;10.170;2023-12-07T07:33:35;1.20;99.90
46091;DHT22;31826;53.572;10.170;2023-12-07T07:36:00;1.20;99.90
46091;DHT22;31826;53.572;10.170;2023-12-07T07:38:26;1.20;99.90
46091;DHT22;31826;53.572;10.170;2023-12-07T07:40:52;1.20;99.90
46091;DHT22;31826;53.572;10.170;2023-12-07T07:43:17;1.10;99.90
46091;DHT22;31826;53.572;10.170;2023-12-07T07:45:43;1.20;99.90
46091;DHT22;31826;53.572;10.170;2023-12-07T07:48:09;1.20;99.90
46091;DHT22;31826;53.572;10.170;2023-12-07T07:50:35;1.10;99.90
46091;DHT22;31826;53.572;10.170;2023-12-07T07:53:02;1.10;99.90
46091;DHT22;31826;53.572;10.170;2023-12-07T07:55:29;1.20;99.90
46091;DHT22;31826;53.572;10.170;2023-12-07T07:57:55;1.20;99.90
46091;DHT22;31826;53.572;10.170;2023-12-07T08:00:21;1.20;99.90
46091;DHT22;31826;53.572;10.170;2023-12-07T08:02:47;1.20;99.90
46091;DHT22;31826;53.572;10.170;2023-12-07T08:05:12;1.20;99.90
46091;DHT22;31826;53.572;10.170;2023-12-07T08:07:39;1.30;99.90
46091;DHT22;31826;53.572;10.170;2023-12-07T08:10:06;1.20;99.90
46091;DHT22;31826;53.572;10.170;2023-12-07T08:12:33;1.20;99.90
46091;DHT22;31826;53.572;10.170;2023-12-07T08:14:59;1.20;99.90
46091;DHT22;31826;53.572;10.170;2023-12-07T08:17:24;1.30;99.90
46091;DHT22;31826;53.572;10.170;2023-12-07T08:19:52;1.30;99.90
46091;DHT22;31826;53.572;10.170;2023-12-07T08:22:18;1.30;99.90
46091;DHT22;31826;53.572;10.170;2023-12-07T08:24:44;1.30;99.90
46091;DHT22;31826;53.572;10.170;2023-12-07T08:27:09;1.30;99.90
46091;DHT22;31826;53.572;10.170;2023-12-07T08:29:36;1.30;99.90
46091;DHT22;31826;53.572;10.170;2023-12-07T08:32:02;1.30;99.90
46091;DHT22;31826;53.572;10.170;2023-12-07T08:34:29;1.40;99.90
46091;DHT22;31826;53.572;10.170;2023-12-07T08:36:54;1.40;99.90
46091;DHT22;31826;53.572;10.170;2023-12-07T08:39:20;1.40;99.90
46091;DHT22;31826;53.572;10.170;2023-12-07T08:41:46;1.40;99.90
46091;DHT22;31826;53.572;10.170;2023-12-07T08:44:12;1.40;99.90
46091;DHT22;31826;53.572;10.170;2023-12-07T08:46:37;1.40;99.90
46091;DHT22;31826;53.572;10.170;2023-12-07T08:49:03;1.40;99.90
46091;DHT22;31826;53.572;10.170;2023-12-07T08:51:29;1.50;99.90
46091;DHT22;31826;53.572;10.170;2023-12-07T08:53:55;1.40;99.90
46091;DHT22;31826;53.572;10.170;2023-12-07T08:56:21;1.60;99.90
46091;DHT22;31826;53.572;10.170;2023-12-07T08:58:46;1.60;99.90
46091;DHT22;31826;53.572;10.170;2023-12-07T09:01:12;1.60;99.90
46091;DHT22;31826;53.572;10.170;2023-12-07T09:03:38;1.60;99.90
46091;DHT22;31826;53.572;10.170;2023-12-07T09:06:04;1.60;99.90
46091;DHT22;31826;53.572;10.170;2023-12-07T09:08:31;1.60;99.90
46091;DHT22;31826;53.572;10.170;2023-12-07T09:10:57;1.50;99.90
46091;DHT22;31826;53.572;10.170;2023-12-07T09:13:22;1.70;99.90
46091;DHT22;31826;53.572;10.170;2023-12-07T09:15:48;1.70;99.90
46091;DHT22;31826;53.572;10.170;2023-12-07T09:18:14;1.60;99.90
46091;DHT22;31826;53.572;10.170;2023-12-07T09:20:40;1.60;99.90
46091;DHT22;31826;53.572;10.170;2023-12-07T09:23:12;1.60;99.90
46091;DHT22;31826;53.572;10.170;2023-12-07T09:25:38;1.70;99.90
46091;DHT22;31826;53.572;10.170;2023-12-07T09:28:04;1.70;99.90
46091;DHT22;31826;53.572;10.170;2023-12-07T09:30:30;1.70;99.90
46091;DHT22;31826;53.572;10.170;2023-12-07T09:32:55;1.70;99.90
46091;DHT22;31826;53.572;10.170;2023-12-07T09:35:21;1.70;99.90
46091;DHT22;31826;53.572;10.170;2023-12-07T09:37:48;1.70;99.90
46091;DHT22;31826;53.572;10.170;2023-12-07T09:40:18;1.70;99.90
46091;DHT22;31826;53.572;10.170;2023-12-07T09:42:46;1.60;99.90
46091;DHT22;31826;53.572;10.170;2023-12-07T09:45:12;1.60;99.90
46091;DHT22;31826;53.572;10.170;2023-12-07T09:47:40;1.60;99.90
46091;DHT22;31826;53.572;10.170;2023-12-07T09:50:08;1.60;99.90
46091;DHT22;31826;53.572;10.170;2023-12-07T09:52:35;1.60;99.90
46091;DHT22;31826;53.572;10.170;2023-12-07T09:55:02;1.60;99.90
46091;DHT22;31826;53.572;10.170;2023-12-07T09:57:29;1.60;99.90
46091;DHT22;31826;53.572;10.170;2023-12-07T09:59:55;1.60;99.90
46091;DHT22;31826;53.572;10.170;2023-12-07T10:02:22;1.60;99.90
46091;DHT22;31826;53.572;10.170;2023-12-07T10:04:48;1.60;99.90
46091;DHT22;31826;53.572;10.170;2023-12-07T10:07:14;1.60;99.90
46091;DHT22;31826;53.572;10.170;2023-12-07T10:09:40;1.60;99.90
46091;DHT22;31826;53.572;10.170;2023-12-07T10:12:06;1.70;99.90
46091;DHT22;31826;53.572;10.170;2023-12-07T10:14:32;1.70;99.90
46091;DHT22;31826;53.572;10.170;2023-12-07T10:16:59;1.60;99.90
46091;DHT22;31826;53.572;10.170;2023-12-07T10:19:25;1.60;99.90
46091;DHT22;31826;53.572;10.170;2023-12-07T10:21:53;1.60;99.90
46091;DHT22;31826;53.572;10.170;2023-12-07T10:24:21;1.60;99.90
46091;DHT22;31826;53.572;10.170;2023-12-07T10:26:49;1.60;99.90
46091;DHT22;31826;53.572;10.170;2023-12-07T10:29:18;1.60;99.90
46091;DHT22;31826;53.572;10.170;2023-12-07T10:31:45;1.70;99.90
46091;DHT22;31826;53.572;10.170;2023-12-07T10:34:12;1.60;99.90
46091;DHT22;31826;53.572;10.170;2023-12-07T10:36:38;1.70;99.90
46091;DHT22;31826;53.572;10.170;2023-12-07T10:39:04;1.60;99.90
46091;DHT22;31826;53.572;10.170;2023-12-07T10:41:34;1.60;99.90
46091;DHT22;31826;53.572;10.170;2023-12-07T10:44:01;1.60;99.90
46091;DHT22;31826;53.572;10.170;2023-12-07T10:46:29;1.70;99.90
46091;DHT22;31826;53.572;10.170;2023-12-07T10:49:04;1.70;99.90
46091;DHT22;31826;53.572;10.170;2023-12-07T10:52:00;1.60;99.90
46091;DHT22;31826;53.572;10.170;2023-12-07T10:54:42;1.60;99.90
46091;DHT22;31826;53.572;10.170;2023-12-07T10:57:11;1.70;99.90
46091;DHT22;31826;53.572;10.170;2023-12-07T10:59:41;1.70;99.90
46091;DHT22;31826;53.572;10.170;2023-12-07T11:02:09;1.70;99.90
46091;DHT22;31826;53.572;10.170;2023-12-07T11:04:37;1.70;99.90
46091;DHT22;31826;53.572;10.170;2023-12-07T11:07:07;1.80;99.90
46091;DHT22;31826;53.572;10.170;2023-12-07T11:09:38;1.80;99.90
46091;DHT22;31826;53.572;10.170;2023-12-07T11:12:17;1.70;99.90
46091;DHT22;31826;53.572;10.170;2023-12-07T11:14:45;1.70;99.90
46091;DHT22;31826;53.572;10.170;2023-12-07T11:17:10;1.70;99.90
46091;DHT22;31826;53.572;10.170;2023-12-07T11:22:09;1.70;99.90
46091;DHT22;31826;53.572;10.170;2023-12-07T11:24:35;1.70;99.90
46091;DHT22;31826;53.572;10.170;2023-12-07T11:27:02;1.80;99.90
46091;DHT22;31826;53.572;10.170;2023-12-07T11:29:31;1.80;99.90
46091;DHT22;31826;53.572;10.170;2023-12-07T11:32:01;1.70;99.90
46091;DHT22;31826;53.572;10.170;2023-12-07T11:34:40;1.80;99.90
46091;DHT22;31826;53.572;10.170;2023-12-07T11:37:07;1.80;99.90
46091;DHT22;31826;53.572;10.170;2023-12-07T11:39:37;1.80;99.90
46091;DHT22;31826;53.572;10.170;2023-12-07T11:42:10;1.90;99.90
46091;DHT22;31826;53.572;10.170;2023-12-07T11:47:05;1.90;99.90
46091;DHT22;31826;53.572;10.170;2023-12-07T11:49:31;1.90;99.90
46091;DHT22;31826;53.572;10.170;2023-12-07T11:51:58;2.00;99.90
46091;DHT22;31826;53.572;10.170;2023-12-07T11:54:27;1.90;99.90
46091;DHT22;31826;53.572;10.170;2023-12-07T11:56:54;1.90;99.90
46091;DHT22;31826;53.572;10.170;2023-12-07T11:59:21;1.90;99.90
46091;DHT22;31826;53.572;10.170;2023-12-07T12:01:48;1.90;99.90
46091;DHT22;31826;53.572;10.170;2023-12-07T12:04:18;1.90;99.90
46091;DHT22;31826;53.572;10.170;2023-12-07T12:06:44;1.90;99.90
46091;DHT22;31826;53.572;10.170;2023-12-07T12:09:13;1.90;99.90
46091;DHT22;31826;53.572;10.170;2023-12-07T12:11:47;1.90;99.90
46091;DHT22;31826;53.572;10.170;2023-12-07T12:14:16;2.00;99.90
46091;DHT22;31826;53.572;10.170;2023-12-07T12:16:43;1.90;99.90
46091;DHT22;31826;53.572;10.170;2023-12-07T12:19:10;2.00;99.90
46091;DHT22;31826;53.572;10.170;2023-12-07T12:21:37;1.90;99.90
46091;DHT22;31826;53.572;10.170;2023-12-07T12:24:05;1.80;99.90
46091;DHT22;31826;53.572;10.170;2023-12-07T12:26:33;1.90;99.90
46091;DHT22;31826;53.572;10.170;2023-12-07T12:29:00;1.90;99.90
46091;DHT22;31826;53.572;10.170;2023-12-07T12:31:27;1.90;99.90
46091;DHT22;31826;53.572;10.170;2023-12-07T12:33:53;1.90;99.90
46091;DHT22;31826;53.572;10.170;2023-12-07T12:36:20;1.90;99.90
46091;DHT22;31826;53.572;10.170;2023-12-07T12:38:51;1.90;99.90
46091;DHT22;31826;53.572;10.170;2023-12-07T12:41:21;1.80;99.90
46091;DHT22;31826;53.572;10.170;2023-12-07T12:43:48;1.80;99.90
46091;DHT22;31826;53.572;10.170;2023-12-07T12:46:15;1.80;99.90
46091;DHT22;31826;53.572;10.170;2023-12-07T12:49:00;1.80;99.90
46091;DHT22;31826;53.572;10.170;2023-12-07T12:51:28;1.80;99.90
46091;DHT22;31826;53.572;10.170;2023-12-07T12:53:55;1.80;99.90
46091;DHT22;31826;53.572;10.170;2023-12-07T12:56:22;1.80;99.90
46091;DHT22;31826;53.572;10.170;2023-12-07T12:58:52;1.90;99.90
46091;DHT22;31826;53.572;10.170;2023-12-07T13:01:18;1.90;99.90
46091;DHT22;31826;53.572;10.170;2023-12-07T13:03:46;1.80;99.90
46091;DHT22;31826;53.572;10.170;2023-12-07T13:06:13;1.80;99.90
46091;DHT22;31826;53.572;10.170;2023-12-07T13:08:40;1.80;99.90
46091;DHT22;31826;53.572;10.170;2023-12-07T13:11:06;1.80;99.90
46091;DHT22;31826;53.572;10.170;2023-12-07T13:13:32;1.70;99.90
46091;DHT22;31826;53.572;10.170;2023-12-07T13:15:58;1.70;99.90
46091;DHT22;31826;53.572;10.170;2023-12-07T13:18:23;1.60;99.90
46091;DHT22;31826;53.572;10.170;2023-12-07T13:20:49;1.70;99.90
46091;DHT22;31826;53.572;10.170;2023-12-07T13:23:15;1.70;99.90
46091;DHT22;31826;53.572;10.170;2023-12-07T13:25:40;1.70;99.90
46091;DHT22;31826;53.572;10.170;2023-12-07T13:28:06;1.70;99.90
46091;DHT22;31826;53.572;10.170;2023-12-07T13:30:34;1.70;99.90
46091;DHT22;31826;53.572;10.170;2023-12-07T13:33:01;1.70;99.90
46091;DHT22;31826;53.572;10.170;2023-12-07T13:35:29;1.70;99.90
46091;DHT22;31826;53.572;10.170;2023-12-07T13:37:55;1.70;99.90
46091;DHT22;31826;53.572;10.170;2023-12-07T13:40:21;1.70;99.90
46091;DHT22;31826;53.572;10.170;2023-12-07T13:42:46;1.70;99.90
46091;DHT22;31826;53.572;10.170;2023-12-07T13:45:12;1.70;99.90
46091;DHT22;31826;53.572;10.170;2023-12-07T13:47:38;1.70;99.90
46091;DHT22;31826;53.572;10.170;2023-12-07T13:50:05;1.60;99.90
46091;DHT22;31826;53.572;10.170;2023-12-07T13:52:31;1.70;99.90
46091;DHT22;31826;53.572;10.170;2023-12-07T13:54:58;1.70;99.90
46091;DHT22;31826;53.572;10.170;2023-12-07T13:57:23;1.60;99.90
46091;DHT22;31826;53.572;10.170;2023-12-07T13:59:55;1.60;99.90
46091;DHT22;31826;53.572;10.170;2023-12-07T14:02:21;1.70;99.90
46091;DHT22;31826;53.572;10.170;2023-12-07T14:04:47;1.70;99.90
46091;DHT22;31826;53.572;10.170;2023-12-07T14:07:20;1.70;99.90
46091;DHT22;31826;53.572;10.170;2023-12-07T14:09:51;1.70;99.90
46091;DHT22;31826;53.572;10.170;2023-12-07T14:12:17;1.70;99.90
46091;DHT22;31826;53.572;10.170;2023-12-07T14:14:44;1.70;99.90
46091;DHT22;31826;53.572;10.170;2023-12-07T14:17:12;1.70;99.90
46091;DHT22;31826;53.572;10.170;2023-12-07T14:19:38;1.70;99.90
46091;DHT22;31826;53.572;10.170;2023-12-07T14:22:04;1.70;99.90
46091;DHT22;31826;53.572;10.170;2023-12-07T14:24:30;1.60;99.90
46091;DHT22;31826;53.572;10.170;2023-12-07T14:26:57;1.60;99.90
46091;DHT22;31826;53.572;10.170;2023-12-07T14:29:23;1.60;99.90
46091;DHT22;31826;53.572;10.170;2023-12-07T14:31:50;1.70;99.90
46091;DHT22;31826;53.572;10.170;2023-12-07T14:34:17;1.70;99.90
46091;DHT22;31826;53.572;10.170;2023-12-07T14:36:44;1.60;99.90
46091;DHT22;31826;53.572;10.170;2023-12-07T14:39:13;1.70;99.90
46091;DHT22;31826;53.572;10.170;2023-12-07T14:41:49;1.60;99.90
46091;DHT22;31826;53.572;10.170;2023-12-07T14:44:17;1.60;99.90
46091;DHT22;31826;53.572;10.170;2023-12-07T14:46:43;1.70;99.90
46091;DHT22;31826;53.572;10.170;2023-12-07T14:49:11;1.60;99.90
46091;DHT22;31826;53.572;10.170;2023-12-07T14:51:37;1.60;99.90
46091;DHT22;31826;53.572;10.170;2023-12-07T14:54:03;1.60;99.90
46091;DHT22;31826;53.572;10.170;2023-12-07T14:56:29;1.60;99.90
46091;DHT22;31826;53.572;10.170;2023-12-07T14:58:54;1.50;99.90
46091;DHT22;31826;53.572;10.170;2023-12-07T15:01:20;1.50;99.90
46091;DHT22;31826;53.572;10.170;2023-12-07T15:03:46;1.50;99.90
46091;DHT22;31826;53.572;10.170;2023-12-07T15:06:11;1.50;99.90
46091;DHT22;31826;53.572;10.170;2023-12-07T15:08:37;1.50;99.90
46091;DHT22;31826;53.572;10.170;2023-12-07T15:11:03;1.50;99.90
46091;DHT22;31826;53.572;10.170;2023-12-07T15:13:29;1.50;99.90
46091;DHT22;31826;53.572;10.170;2023-12-07T15:15:55;1.50;99.90
46091;DHT22;31826;53.572;10.170;2023-12-07T15:18:21;1.50;99.90
46091;DHT22;31826;53.572;10.170;2023-12-07T15:21:14;1.50;99.90
46091;DHT22;31826;53.572;10.170;2023-12-07T15:23:41;1.50;99.90
46091;DHT22;31826;53.572;10.170;2023-12-07T15:26:10;1.50;99.90
46091;DHT22;31826;53.572;10.170;2023-12-07T15:28:37;1.50;99.90
46091;DHT22;31826;53.572;10.170;2023-12-07T15:31:07;1.50;99.90
46091;DHT22;31826;53.572;10.170;2023-12-07T15:33:33;1.60;99.90